createdAt,value
2019-02-28T00:00:14.152Z,100177.20
2019-02-28T00:00:52.833Z,100160.41
2019-02-28T00:01:26.056Z,100178.81
2019-02-28T00:01:57.463Z,100178.81
2019-02-28T00:02:30.030Z,100155.50
2019-02-28T00:03:01.339Z,100165.27
2019-02-28T00:03:32.542Z,100165.21
2019-02-28T00:04:03.858Z,100156.26
2019-02-28T00:04:35.215Z,100162.16
2019-02-28T00:05:06.840Z,100153.67
2019-02-28T00:05:39.050Z,100141.77
2019-02-28T00:06:12.653Z,100145.29
2019-02-28T00:06:44.163Z,100155.92
2019-02-28T00:07:17.963Z,100157.22
2019-02-28T00:07:50.513Z,100143.09
2019-02-28T00:08:21.756Z,100151.45
2019-02-28T00:08:53.656Z,100155.26
2019-02-28T00:09:26.415Z,100154.42
2019-02-28T00:09:58.235Z,100128.80
2019-02-28T00:10:30.883Z,100128.80
2019-02-28T00:11:05.009Z,100147.33
2019-02-28T00:11:36.118Z,100144.25
2019-02-28T00:12:10.218Z,100145.41
2019-02-28T00:12:42.117Z,100145.36
2019-02-28T00:13:13.380Z,100143.58
2019-02-28T00:13:44.616Z,100143.58
2019-02-28T00:14:15.883Z,100138.75
2019-02-28T00:14:47.187Z,100138.75
2019-02-28T00:15:18.416Z,100138.70
2019-02-28T00:15:49.631Z,100138.70
2019-02-28T00:16:20.911Z,100142.61
2019-02-28T00:16:52.213Z,100137.31
2019-02-28T00:17:23.423Z,100137.31
2019-02-28T00:17:54.694Z,100120.50
2019-02-28T00:18:25.917Z,100131.63
2019-02-28T00:18:57.099Z,100123.72
2019-02-28T00:19:28.302Z,100127.63
2019-02-28T00:19:59.476Z,100128.87
2019-02-28T00:20:31.875Z,100117.39
2019-02-28T00:21:07.011Z,100110.68
2019-02-28T00:21:37.374Z,100114.09
2019-02-28T00:22:11.376Z,100126.55
2019-02-28T00:22:43.067Z,100130.91
2019-02-28T00:23:14.327Z,100135.26
2019-02-28T00:23:45.620Z,100135.26
2019-02-28T00:24:17.059Z,100130.04
2019-02-28T00:24:48.432Z,100130.04
2019-02-28T00:25:19.769Z,100127.02
2019-02-28T00:25:51.154Z,100119.95
2019-02-28T00:26:22.387Z,100109.35
2019-02-28T00:26:53.670Z,100109.35
2019-02-28T00:27:25.054Z,100123.58
2019-02-28T00:27:56.340Z,100126.66
2019-02-28T00:28:27.645Z,100098.37
2019-02-28T00:29:00.407Z,100130.52
2019-02-28T00:29:33.720Z,100126.19
2019-02-28T00:30:09.401Z,100128.37
2019-02-28T00:30:40.888Z,100125.36
2019-02-28T00:31:15.319Z,100125.36
2019-02-28T00:31:49.306Z,100122.75
2019-02-28T00:32:21.370Z,100128.86
2019-02-28T00:32:52.355Z,100124.94
2019-02-28T00:33:23.713Z,100124.94
2019-02-28T00:33:55.149Z,100124.52
2019-02-28T00:34:26.345Z,100127.16
2019-02-28T00:34:57.614Z,100119.33
2019-02-28T00:35:28.777Z,100121.05
2019-02-28T00:36:00.080Z,100116.25
2019-02-28T00:36:31.422Z,100099.06
2019-02-28T00:37:02.850Z,100099.06
2019-02-28T00:37:34.185Z,100116.31
2019-02-28T00:38:05.428Z,100093.84
2019-02-28T00:38:36.751Z,100114.12
2019-02-28T00:39:08.087Z,100099.08
2019-02-28T00:39:39.460Z,100099.08
2019-02-28T00:40:10.756Z,100087.69
2019-02-28T00:40:42.090Z,100100.58
2019-02-28T00:41:13.629Z,100109.31
2019-02-28T00:41:45.111Z,100109.31
2019-02-28T00:42:17.702Z,100098.75
2019-02-28T00:42:50.907Z,100104.52
2019-02-28T00:43:25.200Z,100100.53
2019-02-28T00:43:56.968Z,100105.82
2019-02-28T00:44:31.281Z,100105.82
2019-02-28T00:45:06.695Z,100107.59
2019-02-28T00:45:37.928Z,100081.64
2019-02-28T00:46:10.007Z,100104.16
2019-02-28T00:46:45.223Z,100082.94
2019-02-28T00:47:16.428Z,100106.29
2019-02-28T00:47:48.447Z,100106.29
2019-02-28T00:48:21.719Z,100091.48
2019-02-28T00:48:54.140Z,100093.25
2019-02-28T00:49:25.486Z,100095.45
2019-02-28T00:49:56.902Z,100095.45
2019-02-28T00:50:28.372Z,100058.50
2019-02-28T00:50:59.766Z,100087.20
2019-02-28T00:51:31.210Z,100081.52
2019-02-28T00:52:02.682Z,100084.59
2019-02-28T00:52:35.509Z,100078.97
2019-02-28T00:53:07.424Z,100078.97
2019-02-28T00:53:38.802Z,100068.40
2019-02-28T00:54:10.136Z,100073.77
2019-02-28T00:54:44.367Z,100077.27
2019-02-28T00:55:15.516Z,100076.02
2019-02-28T00:55:47.040Z,100076.02
2019-02-28T00:56:18.476Z,100076.02
2019-02-28T00:56:52.493Z,100072.58
2019-02-28T00:57:23.693Z,100070.44
2019-02-28T00:57:56.049Z,100066.53
2019-02-28T00:58:29.006Z,100071.30
2019-02-28T00:59:01.185Z,100056.25
2019-02-28T00:59:32.595Z,100056.25
2019-02-28T01:00:12.122Z,100069.58
2019-02-28T01:00:43.516Z,100044.88
2019-02-28T01:01:14.896Z,100069.22
2019-02-28T01:01:46.869Z,100069.22
2019-02-28T01:02:18.713Z,100061.80
2019-02-28T01:02:53.438Z,100047.69
2019-02-28T01:03:26.494Z,100057.42
2019-02-28T01:03:57.988Z,100062.30
2019-02-28T01:04:30.895Z,100062.77
2019-02-28T01:05:06.030Z,100041.64
2019-02-28T01:05:37.657Z,100056.72
2019-02-28T01:06:10.467Z,100056.72
2019-02-28T01:06:41.938Z,100051.97
2019-02-28T01:07:16.222Z,100053.28
2019-02-28T01:07:48.074Z,100047.61
2019-02-28T01:08:22.109Z,100051.97
2019-02-28T01:08:56.047Z,100048.48
2019-02-28T01:09:27.105Z,100048.06
2019-02-28T01:10:01.534Z,100048.06
2019-02-28T01:10:38.837Z,100053.71
2019-02-28T01:11:06.566Z,100032.98
2019-02-28T01:11:37.904Z,100032.98
2019-02-28T01:12:09.346Z,100050.22
2019-02-28T01:12:40.678Z,100050.22
2019-02-28T01:13:12.215Z,100051.52
2019-02-28T01:13:43.653Z,100047.20
2019-02-28T01:14:14.986Z,100044.16
2019-02-28T01:14:46.220Z,100043.75
2019-02-28T01:15:17.560Z,100030.02
2019-02-28T01:15:48.886Z,100030.02
2019-02-28T01:16:20.272Z,100047.66
2019-02-28T01:16:53.038Z,100022.63
2019-02-28T01:17:26.738Z,100022.63
2019-02-28T01:18:00.390Z,100038.53
2019-02-28T01:18:34.407Z,100038.53
2019-02-28T01:19:08.744Z,100024.03
2019-02-28T01:19:41.312Z,100034.63
2019-02-28T01:20:14.993Z,100030.29
2019-02-28T01:20:44.325Z,100032.02
2019-02-28T01:21:15.550Z,100030.70
2019-02-28T01:21:47.027Z,100031.59
2019-02-28T01:22:18.275Z,100024.66
2019-02-28T01:22:49.611Z,100024.66
2019-02-28T01:23:20.884Z,100021.21
2019-02-28T01:23:52.279Z,100021.21
2019-02-28T01:24:23.550Z,100021.21
2019-02-28T01:24:54.954Z,100022.10
2019-02-28T01:25:26.383Z,100022.10
2019-02-28T01:25:57.763Z,100011.66
2019-02-28T01:26:30.551Z,100020.81
2019-02-28T01:27:01.972Z,100009.89
2019-02-28T01:27:33.405Z,99995.77
2019-02-28T01:28:04.741Z,99986.92
2019-02-28T01:28:36.078Z,99997.61
2019-02-28T01:29:07.715Z,100009.13
2019-02-28T01:29:39.201Z,100003.91
2019-02-28T01:30:12.536Z,100003.91
2019-02-28T01:30:43.871Z,100004.81
2019-02-28T01:31:15.265Z,99999.19
2019-02-28T01:31:46.641Z,99999.19
2019-02-28T01:32:17.975Z,99999.19
2019-02-28T01:32:50.899Z,99975.92
2019-02-28T01:33:24.853Z,99975.92
2019-02-28T01:33:56.017Z,99976.47
2019-02-28T01:34:29.131Z,99988.81
2019-02-28T01:35:05.816Z,99988.40
2019-02-28T01:35:37.526Z,99994.97
2019-02-28T01:36:08.757Z,99994.97
2019-02-28T01:36:39.921Z,99987.56
2019-02-28T01:37:11.359Z,99983.70
2019-02-28T01:37:42.694Z,99983.28
2019-02-28T01:38:14.024Z,99986.80
2019-02-28T01:38:45.366Z,99986.80
2019-02-28T01:39:16.694Z,99961.75
2019-02-28T01:39:48.030Z,99975.94
2019-02-28T01:40:19.670Z,99961.82
2019-02-28T01:40:51.004Z,99961.82
2019-02-28T01:41:22.384Z,99972.97
2019-02-28T01:41:53.778Z,99972.97
2019-02-28T01:42:25.214Z,99969.42
2019-02-28T01:42:56.550Z,99974.29
2019-02-28T01:43:28.972Z,99974.29
2019-02-28T01:44:01.864Z,99963.02
2019-02-28T01:44:35.858Z,99963.02
2019-02-28T01:45:12.228Z,99967.81
2019-02-28T01:45:44.238Z,99951.09
2019-02-28T01:46:17.218Z,99951.09
2019-02-28T01:46:49.391Z,99959.17
2019-02-28T01:47:21.045Z,99959.17
2019-02-28T01:47:52.486Z,99936.33
2019-02-28T01:48:24.037Z,99951.81
2019-02-28T01:48:56.447Z,99951.81
2019-02-28T01:49:27.722Z,99933.36
2019-02-28T01:49:58.915Z,99933.36
2019-02-28T01:50:30.449Z,99949.27
2019-02-28T01:51:02.645Z,99956.67
2019-02-28T01:51:36.584Z,99947.96
2019-02-28T01:52:09.643Z,99950.16
2019-02-28T01:52:44.406Z,99938.88
2019-02-28T01:53:12.974Z,99938.88
2019-02-28T01:53:44.158Z,99942.79
2019-02-28T01:54:15.310Z,99931.70
2019-02-28T01:54:46.487Z,99931.70
2019-02-28T01:55:17.662Z,99941.08
2019-02-28T01:55:48.825Z,99941.08
2019-02-28T01:56:20.179Z,99934.56
2019-02-28T01:56:51.346Z,99934.56
2019-02-28T01:57:22.506Z,99931.53
2019-02-28T01:57:53.685Z,99910.45
2019-02-28T01:58:24.845Z,99910.45
2019-02-28T01:58:56.011Z,99912.18
2019-02-28T01:59:27.191Z,99927.61
2019-02-28T01:59:58.357Z,99927.61
2019-02-28T02:00:29.533Z,99915.67
2019-02-28T02:01:00.754Z,99908.27
2019-02-28T02:01:31.972Z,99907.39
2019-02-28T02:02:06.689Z,99907.39
2019-02-28T02:02:38.020Z,99919.36
2019-02-28T02:03:10.108Z,99926.36
2019-02-28T02:03:41.753Z,99926.36
2019-02-28T02:04:13.230Z,99926.31
2019-02-28T02:04:45.755Z,99916.34
2019-02-28T02:05:18.058Z,99917.64
2019-02-28T02:05:51.832Z,99917.64
2019-02-28T02:06:25.736Z,99902.63
2019-02-28T02:06:59.631Z,99919.78
2019-02-28T02:07:30.527Z,99896.10
2019-02-28T02:08:06.546Z,99893.04
2019-02-28T02:08:37.765Z,99907.16
2019-02-28T02:09:11.021Z,99907.16
2019-02-28T02:09:42.731Z,99900.20
2019-02-28T02:10:21.589Z,99904.95
2019-02-28T02:10:56.024Z,99887.29
2019-02-28T02:11:26.723Z,99887.29
2019-02-28T02:11:59.133Z,99888.64
2019-02-28T02:12:31.848Z,99892.27
2019-02-28T02:13:04.318Z,99896.65
2019-02-28T02:13:36.923Z,99866.35
2019-02-28T02:14:11.074Z,99866.35
2019-02-28T02:14:44.817Z,99887.45
2019-02-28T02:15:16.800Z,99887.45
2019-02-28T02:15:50.773Z,99882.65
2019-02-28T02:16:26.775Z,99876.08
2019-02-28T02:16:54.033Z,99863.69
2019-02-28T02:17:26.228Z,99866.30
2019-02-28T02:17:57.385Z,99858.45
2019-02-28T02:18:28.610Z,99862.38
2019-02-28T02:18:59.733Z,99860.23
2019-02-28T02:19:30.911Z,99875.59
2019-02-28T02:20:05.491Z,99875.59
2019-02-28T02:20:36.653Z,99869.91
2019-02-28T02:21:07.827Z,99852.70
2019-02-28T02:21:39.030Z,99852.70
2019-02-28T02:22:10.264Z,99864.67
2019-02-28T02:22:44.608Z,99872.50
2019-02-28T02:23:17.888Z,99860.23
2019-02-28T02:23:49.647Z,99869.84
2019-02-28T02:24:20.715Z,99858.52
2019-02-28T02:24:51.905Z,99858.52
2019-02-28T02:25:23.098Z,99868.12
2019-02-28T02:25:54.329Z,99868.12
2019-02-28T02:26:25.567Z,99861.13
2019-02-28T02:26:56.781Z,99853.72
2019-02-28T02:27:28.019Z,99853.77
2019-02-28T02:27:59.260Z,99847.62
2019-02-28T02:28:30.494Z,99837.18
2019-02-28T02:29:01.954Z,99837.18
2019-02-28T02:29:36.401Z,99840.25
2019-02-28T02:30:15.963Z,99839.79
2019-02-28T02:30:50.974Z,99839.79
2019-02-28T02:31:27.601Z,99835.92
2019-02-28T02:31:53.564Z,99821.93
2019-02-28T02:32:24.753Z,99828.52
2019-02-28T02:32:55.937Z,99830.70
2019-02-28T02:33:27.153Z,99831.13
2019-02-28T02:33:58.415Z,99827.21
2019-02-28T02:34:29.935Z,99830.70
2019-02-28T02:35:06.088Z,99828.52
2019-02-28T02:35:34.336Z,99818.55
2019-02-28T02:36:05.528Z,99821.58
2019-02-28T02:36:36.723Z,99815.94
2019-02-28T02:37:07.926Z,99809.83
2019-02-28T02:37:39.217Z,99810.31
2019-02-28T02:38:10.346Z,99810.31
2019-02-28T02:38:41.874Z,99791.98
2019-02-28T02:39:16.648Z,99800.34
2019-02-28T02:39:50.278Z,99800.34
2019-02-28T02:40:22.900Z,99801.64
2019-02-28T02:40:59.016Z,99799.50
2019-02-28T02:41:25.816Z,99786.45
2019-02-28T02:41:57.061Z,99776.22
2019-02-28T02:42:28.222Z,99786.45
2019-02-28T02:42:59.431Z,99786.45
2019-02-28T02:43:30.622Z,99785.56
2019-02-28T02:44:01.841Z,99782.96
2019-02-28T02:44:33.067Z,99782.08
2019-02-28T02:45:07.274Z,99782.08
2019-02-28T02:45:43.302Z,99783.38
2019-02-28T02:46:19.668Z,99785.10
2019-02-28T02:46:45.684Z,99785.10
2019-02-28T02:47:17.175Z,99760.57
2019-02-28T02:47:48.503Z,99761.45
2019-02-28T02:48:20.032Z,99761.45
2019-02-28T02:48:51.281Z,99749.13
2019-02-28T02:49:22.511Z,99771.17
2019-02-28T02:49:57.435Z,99767.72
2019-02-28T02:50:33.915Z,99765.53
2019-02-28T02:51:00.109Z,99764.64
2019-02-28T02:51:31.294Z,99764.64
2019-02-28T02:52:02.484Z,99758.13
2019-02-28T02:52:33.671Z,99752.79
2019-02-28T02:53:06.438Z,99763.34
2019-02-28T02:53:42.060Z,99753.33
2019-02-28T02:54:18.108Z,99737.03
2019-02-28T02:54:44.008Z,99756.38
2019-02-28T02:55:15.205Z,99754.20
2019-02-28T02:55:46.576Z,99749.87
2019-02-28T02:56:17.729Z,99749.87
2019-02-28T02:56:49.925Z,99748.11
2019-02-28T02:57:21.066Z,99745.50
2019-02-28T02:57:52.281Z,99758.11
2019-02-28T02:58:27.823Z,99758.11
2019-02-28T02:59:01.104Z,99749.40
2019-02-28T02:59:37.321Z,99752.47
2019-02-28T03:00:13.350Z,99744.54
2019-02-28T03:00:41.702Z,99738.34
2019-02-28T03:01:12.880Z,99751.54
2019-02-28T03:01:44.076Z,99746.74
2019-02-28T03:02:15.243Z,99725.65
2019-02-28T03:02:46.427Z,99725.65
2019-02-28T03:03:17.722Z,99743.19
2019-02-28T03:03:48.884Z,99743.19
2019-02-28T03:04:23.126Z,99741.42
2019-02-28T03:04:58.059Z,99741.42
2019-02-28T03:05:26.412Z,99717.67
2019-02-28T03:05:57.591Z,99717.67
2019-02-28T03:06:28.775Z,99724.77
2019-02-28T03:06:59.998Z,99746.95
2019-02-28T03:07:32.188Z,99713.23
2019-02-28T03:08:03.403Z,99713.23
2019-02-28T03:08:36.379Z,99746.83
2019-02-28T03:09:09.883Z,99735.58
2019-02-28T03:09:43.436Z,99733.79
2019-02-28T03:10:17.414Z,99733.74
2019-02-28T03:10:51.812Z,99735.47
2019-02-28T03:11:24.824Z,99735.47
2019-02-28T03:11:57.721Z,99728.06
2019-02-28T03:12:31.236Z,99732.84
2019-02-28T03:13:04.724Z,99732.84
2019-02-28T03:13:42.263Z,99727.12
2019-02-28T03:14:07.311Z,99728.42
2019-02-28T03:14:38.451Z,99723.62
2019-02-28T03:15:13.659Z,99724.92
2019-02-28T03:15:44.828Z,99724.92
2019-02-28T03:16:16.031Z,99718.77
2019-02-28T03:16:47.229Z,99725.38
2019-02-28T03:17:18.393Z,99725.38
2019-02-28T03:17:49.609Z,99722.30
2019-02-28T03:18:21.802Z,99713.43
2019-02-28T03:18:56.885Z,99716.58
2019-02-28T03:19:33.146Z,99715.26
2019-02-28T03:20:00.717Z,99715.26
2019-02-28T03:20:31.988Z,99705.09
2019-02-28T03:21:03.261Z,99708.27
2019-02-28T03:21:34.411Z,99700.23
2019-02-28T03:22:05.621Z,99708.64
2019-02-28T03:22:36.774Z,99708.64
2019-02-28T03:23:07.989Z,99691.00
2019-02-28T03:23:40.533Z,99687.93
2019-02-28T03:24:15.200Z,99687.93
2019-02-28T03:24:50.640Z,99687.50
2019-02-28T03:25:18.027Z,99694.23
2019-02-28T03:25:49.195Z,99688.75
2019-02-28T03:26:20.489Z,99688.75
2019-02-28T03:26:51.641Z,99693.77
2019-02-28T03:27:22.834Z,99695.44
2019-02-28T03:27:56.490Z,99695.44
2019-02-28T03:28:28.233Z,99692.35
2019-02-28T03:29:00.163Z,99692.35
2019-02-28T03:29:31.371Z,99691.42
2019-02-28T03:30:07.046Z,99691.42
2019-02-28T03:30:38.247Z,99690.52
2019-02-28T03:31:14.277Z,99690.52
2019-02-28T03:31:55.363Z,99687.87
2019-02-28T03:32:15.634Z,99688.27
2019-02-28T03:32:46.905Z,99688.27
2019-02-28T03:33:27.112Z,99668.45
2019-02-28T03:33:51.713Z,99668.45
2019-02-28T03:34:22.922Z,99696.42
2019-02-28T03:34:58.239Z,99691.66
2019-02-28T03:35:40.063Z,99678.95
2019-02-28T03:36:00.413Z,99678.95
2019-02-28T03:36:31.614Z,99684.14
2019-02-28T03:37:02.783Z,99684.14
2019-02-28T03:37:34.617Z,99671.27
2019-02-28T03:38:10.525Z,99672.55
2019-02-28T03:38:40.023Z,99682.31
2019-02-28T03:39:11.173Z,99687.95
2019-02-28T03:39:42.376Z,99687.95
2019-02-28T03:40:13.551Z,99680.06
2019-02-28T03:40:44.758Z,99680.06
2019-02-28T03:41:17.789Z,99662.48
2019-02-28T03:41:52.597Z,99653.20
2019-02-28T03:42:28.559Z,99678.19
2019-02-28T03:42:55.164Z,99667.70
2019-02-28T03:43:26.319Z,99667.70
2019-02-28T03:43:57.521Z,99667.24
2019-02-28T03:44:28.671Z,99655.76
2019-02-28T03:44:59.878Z,99670.72
2019-02-28T03:45:35.175Z,99670.72
2019-02-28T03:46:06.364Z,99650.13
2019-02-28T03:46:37.291Z,99664.16
2019-02-28T03:47:08.516Z,99664.16
2019-02-28T03:47:39.745Z,99660.25
2019-02-28T03:48:10.995Z,99642.14
2019-02-28T03:48:42.219Z,99654.56
2019-02-28T03:49:13.483Z,99653.09
2019-02-28T03:49:49.819Z,99647.41
2019-02-28T03:50:21.856Z,99660.66
2019-02-28T03:50:55.310Z,99660.66
2019-02-28T03:51:28.367Z,99655.87
2019-02-28T03:51:57.151Z,99661.50
2019-02-28T03:52:28.337Z,99661.50
2019-02-28T03:52:59.521Z,99661.91
2019-02-28T03:53:30.700Z,99661.91
2019-02-28T03:54:01.861Z,99649.71
2019-02-28T03:54:33.044Z,99634.85
2019-02-28T03:55:09.115Z,99642.72
2019-02-28T03:55:41.471Z,99637.92
2019-02-28T03:56:14.464Z,99639.64
2019-02-28T03:56:51.058Z,99639.64
2019-02-28T03:57:19.058Z,99638.76
2019-02-28T03:57:50.222Z,99640.06
2019-02-28T03:58:21.447Z,99627.45
2019-02-28T03:58:52.694Z,99637.03
2019-02-28T03:59:23.882Z,99639.17
2019-02-28T03:59:56.734Z,99632.65
2019-02-28T04:00:32.869Z,99632.65
2019-02-28T04:01:01.251Z,99636.11
2019-02-28T04:01:32.433Z,99636.11
2019-02-28T04:02:03.718Z,99629.58
2019-02-28T04:02:34.988Z,99622.02
2019-02-28T04:03:06.159Z,99614.61
2019-02-28T04:03:37.349Z,99631.34
2019-02-28T04:04:12.296Z,99631.34
2019-02-28T04:04:48.816Z,99619.40
2019-02-28T04:05:14.682Z,99625.61
2019-02-28T04:05:45.866Z,99630.05
2019-02-28T04:06:17.042Z,99630.05
2019-02-28T04:06:48.288Z,99619.52
2019-02-28T04:07:19.432Z,99614.19
2019-02-28T04:07:53.587Z,99614.19
2019-02-28T04:08:29.387Z,99621.72
2019-02-28T04:08:56.831Z,99617.87
2019-02-28T04:09:27.993Z,99617.87
2019-02-28T04:09:59.214Z,99600.30
2019-02-28T04:10:30.377Z,99600.30
2019-02-28T04:11:02.599Z,99609.51
2019-02-28T04:11:33.846Z,99620.98
2019-02-28T04:12:08.733Z,99596.48
2019-02-28T04:12:44.841Z,99596.48
2019-02-28T04:13:11.989Z,99607.55
2019-02-28T04:13:43.145Z,99596.49
2019-02-28T04:14:14.328Z,99596.49
2019-02-28T04:14:45.476Z,99602.86
2019-02-28T04:15:18.074Z,99600.08
2019-02-28T04:16:07.506Z,99600.08
2019-02-28T04:16:22.399Z,99608.55
2019-02-28T04:16:54.554Z,99608.55
2019-02-28T04:17:30.013Z,99610.31
2019-02-28T04:17:58.846Z,99610.78
2019-02-28T04:18:30.018Z,99598.85
2019-02-28T04:19:01.216Z,99609.07
2019-02-28T04:19:32.394Z,99609.07
2019-02-28T04:20:05.191Z,99599.11
2019-02-28T04:20:37.834Z,99599.11
2019-02-28T04:21:10.751Z,99594.26
2019-02-28T04:21:46.211Z,99577.17
2019-02-28T04:22:19.658Z,99607.86
2019-02-28T04:22:48.521Z,99607.86
2019-02-28T04:23:19.958Z,99592.13
2019-02-28T04:23:51.117Z,99586.39
2019-02-28T04:24:22.334Z,99582.89
2019-02-28T04:24:53.487Z,99593.12
2019-02-28T04:25:24.725Z,99574.67
2019-02-28T04:25:56.964Z,99572.95
2019-02-28T04:26:30.045Z,99572.95
2019-02-28T04:27:06.520Z,99591.88
2019-02-28T04:27:35.300Z,99575.61
2019-02-28T04:28:06.692Z,99585.83
2019-02-28T04:28:37.921Z,99585.83
2019-02-28T04:29:09.143Z,99569.56
2019-02-28T04:29:40.385Z,99589.36
2019-02-28T04:30:13.273Z,99581.97
2019-02-28T04:30:45.525Z,99575.92
2019-02-28T04:31:20.067Z,99553.56
2019-02-28T04:31:51.307Z,99580.77
2019-02-28T04:32:27.702Z,99575.55
2019-02-28T04:33:01.204Z,99575.55
2019-02-28T04:33:37.371Z,99546.27
2019-02-28T04:34:03.550Z,99565.22
2019-02-28T04:34:34.773Z,99560.01
2019-02-28T04:35:06.420Z,99560.01
2019-02-28T04:35:37.639Z,99574.34
2019-02-28T04:36:08.801Z,99549.53
2019-02-28T04:36:40.009Z,99549.22
2019-02-28T04:37:11.189Z,99560.11
2019-02-28T04:37:46.746Z,99560.11
2019-02-28T04:38:20.449Z,99554.02
2019-02-28T04:38:51.672Z,99554.02
2019-02-28T04:39:22.773Z,99538.64
2019-02-28T04:39:54.881Z,99538.64
2019-02-28T04:40:26.937Z,99534.27
2019-02-28T04:40:59.944Z,99547.55
2019-02-28T04:41:32.913Z,99543.12
2019-02-28T04:42:05.168Z,99549.27
2019-02-28T04:42:37.354Z,99552.76
2019-02-28T04:43:10.073Z,99556.25
2019-02-28T04:43:44.432Z,99556.25
2019-02-28T04:44:15.447Z,99553.66
2019-02-28T04:44:49.197Z,99553.66
2019-02-28T04:45:23.312Z,99536.98
2019-02-28T04:45:53.895Z,99555.84
2019-02-28T04:46:25.081Z,99537.39
2019-02-28T04:46:56.284Z,99537.39
2019-02-28T04:47:27.469Z,99533.95
2019-02-28T04:47:59.697Z,99533.95
2019-02-28T04:48:30.927Z,99556.77
2019-02-28T04:49:02.169Z,99556.77
2019-02-28T04:49:33.403Z,99557.66
2019-02-28T04:50:07.325Z,99558.08
2019-02-28T04:50:38.548Z,99543.53
2019-02-28T04:51:09.724Z,99553.74
2019-02-28T04:51:41.135Z,99543.58
2019-02-28T04:52:12.878Z,99534.05
2019-02-28T04:52:47.921Z,99535.35
2019-02-28T04:53:18.925Z,99560.78
2019-02-28T04:53:52.920Z,99538.80
2019-02-28T04:54:24.566Z,99538.80
2019-02-28T04:54:59.383Z,99533.16
2019-02-28T04:55:30.621Z,99533.16
2019-02-28T04:56:01.999Z,99540.98
2019-02-28T04:56:33.167Z,99540.98
2019-02-28T04:57:04.380Z,99550.77
2019-02-28T04:57:36.545Z,99534.93
2019-02-28T04:58:07.730Z,99522.63
2019-02-28T04:58:38.906Z,99549.05
2019-02-28T04:59:10.094Z,99552.13
2019-02-28T04:59:41.278Z,99556.08
2019-02-28T05:00:15.425Z,99556.08
2019-02-28T05:00:46.618Z,99562.13
2019-02-28T05:01:18.786Z,99562.13
2019-02-28T05:01:49.952Z,99543.32
2019-02-28T05:02:22.148Z,99546.34
2019-02-28T05:02:54.851Z,99538.89
2019-02-28T05:03:29.034Z,99538.89
2019-02-28T05:04:02.270Z,99554.73
2019-02-28T05:04:33.247Z,99553.89
2019-02-28T05:05:05.568Z,99553.89
2019-02-28T05:05:36.756Z,99552.17
2019-02-28T05:06:07.934Z,99552.17
2019-02-28T05:06:39.143Z,99541.73
2019-02-28T05:07:10.330Z,99537.41
2019-02-28T05:07:41.539Z,99526.73
2019-02-28T05:08:12.701Z,99543.50
2019-02-28T05:08:43.903Z,99543.93
2019-02-28T05:09:15.261Z,99538.76
2019-02-28T05:09:48.090Z,99544.81
2019-02-28T05:10:22.358Z,99531.36
2019-02-28T05:10:55.642Z,99531.36
2019-02-28T05:11:27.358Z,99530.47
2019-02-28T05:11:59.088Z,99542.67
2019-02-28T05:12:30.241Z,99537.88
2019-02-28T05:13:01.453Z,99529.86
2019-02-28T05:13:32.615Z,99529.86
2019-02-28T05:14:03.827Z,99526.56
2019-02-28T05:14:34.976Z,99522.60
2019-02-28T05:15:09.545Z,99528.75
2019-02-28T05:15:41.160Z,99528.75
2019-02-28T05:16:13.167Z,99525.26
2019-02-28T05:16:47.444Z,99526.56
2019-02-28T05:17:19.314Z,99521.77
2019-02-28T05:17:53.132Z,99521.77
2019-02-28T05:18:27.593Z,99526.98
2019-02-28T05:18:58.257Z,99511.24
2019-02-28T05:19:32.385Z,99500.25
2019-02-28T05:20:07.295Z,99521.30
2019-02-28T05:20:45.133Z,99521.30
2019-02-28T05:21:13.167Z,99510.63
2019-02-28T05:21:44.475Z,99507.19
2019-02-28T05:22:15.729Z,99501.09
2019-02-28T05:22:46.889Z,99501.09
2019-02-28T05:23:18.222Z,99512.17
2019-02-28T05:23:49.531Z,99501.09
2019-02-28T05:24:20.805Z,99517.80
2019-02-28T05:24:52.078Z,99517.80
2019-02-28T05:25:23.319Z,99514.31
2019-02-28T05:25:54.583Z,99514.31
2019-02-28T05:26:26.306Z,99510.82
2019-02-28T05:27:00.139Z,99492.84
2019-02-28T05:27:34.910Z,99491.91
2019-02-28T05:28:06.662Z,99491.91
2019-02-28T05:28:40.542Z,99515.61
2019-02-28T05:29:11.917Z,99500.20
2019-02-28T05:29:44.727Z,99512.12
2019-02-28T05:30:19.445Z,99509.51
2019-02-28T05:30:50.249Z,99509.51
2019-02-28T05:31:24.148Z,99516.03
2019-02-28T05:31:58.101Z,99518.22
2019-02-28T05:32:28.878Z,99505.59
2019-02-28T05:33:00.054Z,99515.16
2019-02-28T05:33:31.318Z,99515.16
2019-02-28T05:34:02.612Z,99497.59
2019-02-28T05:34:33.863Z,99476.73
2019-02-28T05:35:05.218Z,99476.73
2019-02-28T05:35:36.429Z,99476.36
2019-02-28T05:36:07.655Z,99496.05
2019-02-28T05:36:38.895Z,99502.11
2019-02-28T05:37:12.473Z,99496.47
2019-02-28T05:37:46.810Z,99494.28
2019-02-28T05:38:20.754Z,99494.28
2019-02-28T05:38:49.530Z,99479.72
2019-02-28T05:39:20.729Z,99490.80
2019-02-28T05:39:51.890Z,99492.52
2019-02-28T05:40:23.094Z,99474.50
2019-02-28T05:40:55.542Z,99488.19
2019-02-28T05:41:26.850Z,99483.81
2019-02-28T05:41:58.102Z,99492.09
2019-02-28T05:42:29.299Z,99474.08
2019-02-28T05:43:00.465Z,99474.08
2019-02-28T05:43:32.168Z,99468.91
2019-02-28T05:44:06.240Z,99473.72
2019-02-28T05:44:37.484Z,99468.58
2019-02-28T05:45:11.388Z,99446.09
2019-02-28T05:45:48.750Z,99470.27
2019-02-28T05:46:20.334Z,99471.98
2019-02-28T05:46:50.499Z,99478.09
2019-02-28T05:47:21.751Z,99478.09
2019-02-28T05:47:53.013Z,99474.13
2019-02-28T05:48:24.237Z,99479.80
2019-02-28T05:48:55.546Z,99484.55
2019-02-28T05:49:26.795Z,99484.55
2019-02-28T05:49:58.020Z,99488.47
2019-02-28T05:50:29.255Z,99467.80
2019-02-28T05:51:00.444Z,99467.80
2019-02-28T05:51:31.689Z,99478.00
2019-02-28T05:52:03.854Z,99478.00
2019-02-28T05:52:35.090Z,99489.72
2019-02-28T05:53:09.251Z,99482.31
2019-02-28T05:53:41.320Z,99482.31
2019-02-28T05:54:15.905Z,99480.59
2019-02-28T05:54:47.219Z,99480.59
2019-02-28T05:55:24.445Z,99470.59
2019-02-28T05:55:51.721Z,99464.72
2019-02-28T05:56:22.910Z,99464.72
2019-02-28T05:56:54.115Z,99492.28
2019-02-28T05:57:25.268Z,99492.28
2019-02-28T05:57:56.450Z,99489.91
2019-02-28T05:58:27.637Z,99489.91
2019-02-28T05:58:58.828Z,99494.47
2019-02-28T05:59:29.992Z,99490.56
2019-02-28T06:00:02.748Z,99490.56
2019-02-28T06:00:36.985Z,99466.34
2019-02-28T06:01:08.811Z,99497.96
2019-02-28T06:01:43.534Z,99484.42
2019-02-28T06:02:14.616Z,99469.10
2019-02-28T06:02:45.797Z,99469.10
2019-02-28T06:03:17.247Z,99485.44
2019-02-28T06:03:48.444Z,99485.44
2019-02-28T06:04:19.635Z,99477.19
2019-02-28T06:04:50.782Z,99475.01
2019-02-28T06:05:21.981Z,99468.48
2019-02-28T06:05:53.174Z,99477.20
2019-02-28T06:06:24.381Z,99477.20
2019-02-28T06:06:55.593Z,99476.74
2019-02-28T06:07:28.787Z,99458.77
2019-02-28T06:08:00.462Z,99452.25
2019-02-28T06:08:35.545Z,99460.06
2019-02-28T06:09:06.047Z,99456.59
2019-02-28T06:09:37.255Z,99453.56
2019-02-28T06:10:11.003Z,99453.56
2019-02-28T06:10:42.244Z,99484.60
2019-02-28T06:11:15.294Z,99458.02
2019-02-28T06:11:46.599Z,99468.08
2019-02-28T06:12:17.769Z,99467.20
2019-02-28T06:12:49.003Z,99458.49
2019-02-28T06:13:20.163Z,99458.49
2019-02-28T06:13:52.682Z,99473.72